Time;durP1;ratioP1;P1;durP2;ratioP2;P2;SDS_P1;SDS_P2;PMS_P1;PMS_P2;Temp;Humidity;BMP_temperature;BMP_pressure;BME280_temperature;BME280_humidity;BME280_pressure;Samples;Min_cycle;Max_cycle;Signal;HPM_P1;HPM_P2
2022/04/28 00:02:15;;;;;;;18.92;14.60;;;4.70;94.90;;;;;;5073464;28;20041;-68
2022/04/28 00:04:40;;;;;;;27.20;18.48;;;4.60;94.90;;;;;;5071944;28;20036;-68
2022/04/28 00:07:06;;;;;;;19.52;14.90;;;4.60;94.60;;;;;;5074767;28;20031;-67
2022/04/28 00:09:32;;;;;;;25.77;17.45;;;4.50;94.30;;;;;;5057136;28;20033;-68
2022/04/28 00:11:57;;;;;;;24.88;17.85;;;4.50;94.30;;;;;;5073005;28;20025;-67
2022/04/28 00:14:23;;;;;;;27.85;19.67;;;4.40;93.40;;;;;;5074774;28;20111;-68
2022/04/28 00:16:49;;;;;;;24.65;19.05;;;4.50;93.00;;;;;;5073545;28;20028;-68
2022/04/28 00:19:15;;;;;;;29.25;20.63;;;4.50;93.10;;;;;;5071655;28;20032;-68
2022/04/28 00:21:41;;;;;;;33.13;22.23;;;4.50;93.30;;;;;;5073305;28;20033;-68
2022/04/28 00:24:07;;;;;;;32.63;19.88;;;4.40;93.00;;;;;;5076945;28;20024;-68
2022/04/28 00:26:32;;;;;;;28.42;19.55;;;4.30;93.70;;;;;;5076690;28;20086;-68
2022/04/28 00:28:58;;;;;;;28.67;20.80;;;4.20;93.50;;;;;;5077695;28;20028;-67
2022/04/28 00:31:24;;;;;;;31.35;21.50;;;4.20;92.90;;;;;;5076982;28;20460;-67
2022/04/28 00:33:49;;;;;;;33.28;23.85;;;4.20;92.30;;;;;;5067623;28;20090;-68
2022/04/28 00:36:15;;;;;;;30.52;21.70;;;4.20;92.30;;;;;;5069082;28;20029;-67
2022/04/28 00:38:41;;;;;;;30.67;21.55;;;4.20;92.10;;;;;;5066248;28;20410;-67
2022/04/28 00:41:08;;;;;;;36.38;23.80;;;4.20;92.10;;;;;;5066167;28;20013;-68
2022/04/28 00:43:51;;;;;;;31.13;22.48;;;4.20;91.70;;;;;;5065008;28;20029;-68
2022/04/28 00:46:17;;;;;;;36.22;24.75;;;4.20;91.50;;;;;;5069016;28;20021;-67
2022/04/28 00:51:30;;;;;;;30.55;21.92;;;4.30;91.80;;;;;;5074788;28;20086;-68
2022/04/28 00:53:59;;;;;;;33.15;21.98;;;4.20;91.90;;;;;;5077441;28;20359;-69
2022/04/28 00:56:30;;;;;;;30.08;21.65;;;4.10;92.40;;;;;;5078323;28;20413;-68
2022/04/28 00:58:57;;;;;;;34.45;24.98;;;4.10;91.40;;;;;;5077267;28;20044;-69
2022/04/28 01:01:22;;;;;;;37.35;25.40;;;4.10;91.10;;;;;;5076488;28;20294;-68
2022/04/28 01:03:48;;;;;;;34.55;24.40;;;4.30;91.00;;;;;;5078272;28;20028;-68
2022/04/28 01:06:17;;;;;;;30.60;21.92;;;4.20;91.80;;;;;;5078038;28;20036;-68
2022/04/28 01:08:43;;;;;;;34.65;23.50;;;4.20;91.50;;;;;;5059371;28;20055;-68
2022/04/28 01:11:08;;;;;;;39.92;27.10;;;4.20;91.00;;;;;;5078433;28;20597;-68
2022/04/28 01:13:34;;;;;;;31.63;22.33;;;4.40;90.20;;;;;;5075476;28;20157;-69
2022/04/28 01:16:01;;;;;;;37.55;26.25;;;4.30;92.00;;;;;;5076494;28;20036;-68
2022/04/28 01:18:26;;;;;;;43.20;26.33;;;4.50;90.80;;;;;;5074871;28;20081;-69
2022/04/28 01:20:52;;;;;;;28.42;20.00;;;4.60;90.80;;;;;;5073720;28;20024;-69
2022/04/28 01:23:18;;;;;;;31.77;22.08;;;4.50;92.20;;;;;;5076174;28;20029;-68
2022/04/28 01:25:44;;;;;;;30.27;22.15;;;4.50;92.50;;;;;;5076120;28;20035;-68
2022/04/28 01:28:11;;;;;;;28.98;20.88;;;4.30;93.50;;;;;;5076615;28;20325;-68
2022/04/28 01:30:39;;;;;;;33.28;23.10;;;4.20;93.20;;;;;;5074339;28;20033;-68
2022/04/28 01:33:05;;;;;;;29.13;20.88;;;4.10;93.10;;;;;;5073412;28;20499;-68
2022/04/28 01:35:34;;;;;;;34.08;22.13;;;4.10;92.30;;;;;;5076361;28;20033;-69
2022/04/28 01:38:00;;;;;;;29.45;21.42;;;4.00;93.40;;;;;;5075104;28;20364;-68
2022/04/28 01:40:25;;;;;;;34.58;22.42;;;3.90;92.30;;;;;;5075353;28;20084;-68
2022/04/28 01:42:51;;;;;;;38.83;24.75;;;4.00;92.20;;;;;;5075648;28;20028;-68
2022/04/28 01:45:20;;;;;;;38.60;24.45;;;4.00;92.50;;;;;;5074558;28;20036;-67
2022/04/28 01:47:45;;;;;;;31.10;21.60;;;3.90;92.60;;;;;;5072964;28;20420;-68
2022/04/28 01:50:12;;;;;;;32.35;22.50;;;3.80;91.90;;;;;;5074860;28;20028;-68
2022/04/28 01:55:23;;;;;;;32.97;23.27;;;3.80;92.10;;;;;;5074711;28;20108;-69
2022/04/28 01:57:49;;;;;;;32.28;21.95;;;3.90;91.50;;;;;;5075643;28;20147;-68
2022/04/28 02:00:15;;;;;;;30.33;21.15;;;3.80;92.60;;;;;;5053688;28;20128;-68
2022/04/28 02:02:41;;;;;;;28.67;20.90;;;3.70;92.10;;;;;;5054038;28;20025;-68
2022/04/28 02:05:09;;;;;;;30.77;21.60;;;3.60;92.40;;;;;;5054826;28;20052;-68
2022/04/28 02:07:35;;;;;;;31.67;21.45;;;3.60;91.70;;;;;;5055000;28;20337;-67
2022/04/28 02:10:03;;;;;;;32.42;22.40;;;3.50;92.30;;;;;;5052573;28;20430;-68
2022/04/28 02:12:28;;;;;;;33.20;22.65;;;3.50;92.30;;;;;;5055680;28;20037;-68
2022/04/28 02:14:55;;;;;;;27.50;20.08;;;3.40;92.30;;;;;;5046281;28;20037;-68
2022/04/28 02:17:22;;;;;;;31.85;21.42;;;3.30;91.40;;;;;;5054861;28;20021;-68
2022/04/28 02:19:48;;;;;;;30.92;21.63;;;3.30;91.70;;;;;;5053939;28;20356;-68
2022/04/28 02:22:14;;;;;;;36.67;23.73;;;3.30;91.10;;;;;;5051616;28;20038;-68
2022/04/28 02:24:40;;;;;;;41.20;25.98;;;3.30;91.90;;;;;;5048609;28;20074;-68
2022/04/28 02:27:06;;;;;;;37.90;23.58;;;3.20;91.90;;;;;;5055995;28;20128;-68
2022/04/28 02:29:33;;;;;;;30.70;20.23;;;3.10;91.50;;;;;;5054163;28;20024;-69
2022/04/28 02:31:58;;;;;;;27.58;18.65;;;3.10;91.10;;;;;;5054292;28;20033;-68
2022/04/28 02:34:24;;;;;;;36.53;23.08;;;3.00;91.00;;;;;;5053816;28;20330;-68
2022/04/28 02:36:50;;;;;;;30.83;21.13;;;3.10;90.30;;;;;;5054702;28;20045;-68
2022/04/28 02:39:19;;;;;;;37.83;23.67;;;3.10;90.10;;;;;;5052556;28;20079;-68
2022/04/28 02:41:47;;;;;;;29.42;20.23;;;3.10;90.70;;;;;;5052731;28;20110;-68
2022/04/28 02:44:13;;;;;;;27.15;18.60;;;3.10;90.90;;;;;;5054718;28;20231;-68
2022/04/28 02:46:42;;;;;;;28.73;19.80;;;3.00;90.40;;;;;;5051828;28;20044;-69
2022/04/28 02:49:09;;;;;;;34.85;21.23;;;3.00;90.60;;;;;;5050595;28;20358;-68
2022/04/28 02:51:34;;;;;;;27.52;18.30;;;2.90;90.30;;;;;;5054218;28;20025;-68
2022/04/28 02:54:00;;;;;;;32.63;20.48;;;2.90;89.80;;;;;;5045417;28;20329;-69
2022/04/28 02:56:26;;;;;;;38.85;29.00;;;2.90;89.30;;;;;;5054285;28;20021;-68
2022/04/28 02:58:53;;;;;;;32.55;20.52;;;2.90;89.50;;;;;;5063223;28;20040;-68
2022/04/28 03:01:23;;;;;;;29.30;19.88;;;2.80;89.80;;;;;;5074174;28;20066;-68
2022/04/28 03:03:49;;;;;;;25.65;17.75;;;2.70;90.60;;;;;;5056178;28;20386;-68
2022/04/28 03:11:44;;;;;;;26.33;17.58;;;2.60;90.10;;;;;;5072916;28;20167;-68
2022/04/28 03:14:10;;;;;;;31.75;21.42;;;2.60;88.70;;;;;;5073908;28;20107;-68
2022/04/28 03:16:36;;;;;;;26.13;16.92;;;2.60;89.20;;;;;;5075125;28;20028;-68
2022/04/28 03:19:02;;;;;;;27.33;18.55;;;2.50;89.00;;;;;;5072957;28;20294;-68
2022/04/28 03:21:28;;;;;;;36.65;23.77;;;2.50;88.80;;;;;;5073522;28;20035;-68
2022/04/28 03:23:54;;;;;;;30.48;20.23;;;2.50;89.00;;;;;;5055316;28;20029;-68
2022/04/28 03:26:19;;;;;;;30.38;19.92;;;2.50;88.30;;;;;;5057686;28;20421;-68
2022/04/28 03:28:45;;;;;;;30.08;20.45;;;2.60;87.90;;;;;;5074081;28;20020;-68
2022/04/28 03:31:11;;;;;;;31.38;19.80;;;2.70;87.90;;;;;;5069429;28;20025;-68
2022/04/28 03:33:36;;;;;;;31.40;19.60;;;2.80;87.90;;;;;;5073250;28;20021;-68
2022/04/28 03:36:50;;;;;;;33.67;21.73;;;2.80;88.60;;;;;;5073266;28;20116;-68
2022/04/28 03:38:53;;;;;;;26.52;17.27;;;2.90;87.40;;;;;;5070357;28;20025;-68
2022/04/28 03:41:19;;;;;;;30.30;19.38;;;2.80;88.00;;;;;;5074914;28;20364;-68
2022/04/28 03:43:45;;;;;;;29.38;17.48;;;2.80;88.20;;;;;;5072561;28;20029;-68
2022/04/28 03:46:11;;;;;;;29.92;18.48;;;2.80;88.00;;;;;;5075277;28;20101;-68
2022/04/28 03:48:37;;;;;;;30.13;18.08;;;2.80;87.90;;;;;;5071305;28;20021;-68
2022/04/28 03:51:04;;;;;;;23.00;15.93;;;2.80;87.90;;;;;;5072962;28;20127;-66
2022/04/28 03:53:30;;;;;;;26.13;17.40;;;2.80;87.60;;;;;;5070972;28;20029;-67
2022/04/28 03:55:59;;;;;;;25.85;17.08;;;2.80;87.40;;;;;;5054215;28;20023;-66
2022/04/28 03:58:25;;;;;;;27.95;17.00;;;2.80;87.30;;;;;;5072202;28;20047;-66
2022/04/28 04:00:52;;;;;;;25.13;16.10;;;2.90;87.60;;;;;;5072186;28;20024;-66
2022/04/28 04:03:20;;;;;;;28.15;18.33;;;2.80;88.10;;;;;;5070899;28;20040;-69
2022/04/28 04:05:46;;;;;;;23.75;15.32;;;2.80;88.30;;;;;;5054483;28;20078;-67
2022/04/28 04:08:12;;;;;;;27.27;16.75;;;2.70;87.80;;;;;;5073318;28;20028;-69
2022/04/28 04:10:38;;;;;;;25.70;16.40;;;2.70;88.20;;;;;;5072733;28;20025;-68
2022/04/28 04:13:04;;;;;;;28.00;17.23;;;2.70;88.00;;;;;;5070913;28;20036;-69
2022/04/28 04:15:30;;;;;;;29.70;19.25;;;2.60;88.20;;;;;;5067052;28;20055;-68
2022/04/28 04:17:56;;;;;;;164.45;137.55;;;2.60;88.00;;;;;;5071584;28;20052;-68
2022/04/28 04:20:21;;;;;;;30.13;20.70;;;2.60;87.90;;;;;;5068118;28;20379;-68
2022/04/28 04:22:47;;;;;;;27.35;18.60;;;2.60;87.20;;;;;;5071193;28;20040;-67
2022/04/28 04:25:13;;;;;;;21.42;15.13;;;2.70;87.40;;;;;;5070835;28;20036;-69
2022/04/28 04:27:38;;;;;;;24.08;16.27;;;2.80;87.00;;;;;;5070410;28;20036;-68
2022/04/28 04:32:17;;;;;;;23.80;15.77;;;2.90;86.40;;;;;;5056120;28;20020;-68
2022/04/28 04:32:50;;;;;;;27.25;16.92;;;3.00;87.30;;;;;;5072467;28;20028;-68
2022/04/28 04:35:17;;;;;;;25.52;15.57;;;3.00;87.80;;;;;;5072540;28;20037;-68
2022/04/28 04:37:43;;;;;;;26.83;17.15;;;3.00;87.80;;;;;;5068431;28;20031;-68
2022/04/28 04:40:10;;;;;;;23.45;15.93;;;3.00;88.30;;;;;;5071385;28;20032;-68
2022/04/28 04:42:36;;;;;;;24.67;16.70;;;3.10;87.70;;;;;;5071014;28;20048;-68
2022/04/28 04:45:02;;;;;;;21.08;13.55;;;3.10;89.20;;;;;;5068601;28;20114;-69
2022/04/28 04:47:28;;;;;;;22.48;15.95;;;3.00;89.30;;;;;;5055144;28;20036;-68
2022/04/28 04:49:53;;;;;;;18.73;13.88;;;3.00;89.70;;;;;;5068626;28;20107;-69
2022/04/28 04:52:19;;;;;;;27.45;17.73;;;2.90;88.50;;;;;;5053037;28;20028;-69
2022/04/28 04:54:44;;;;;;;25.25;15.93;;;3.00;89.30;;;;;;5070489;28;20212;-68
2022/04/28 04:57:10;;;;;;;27.98;18.00;;;2.90;89.10;;;;;;5071907;28;20029;-68
2022/04/28 04:59:36;;;;;;;22.30;15.30;;;3.00;88.30;;;;;;5072759;28;20048;-68
2022/04/28 05:02:01;;;;;;;22.70;14.65;;;3.00;89.40;;;;;;5071024;28;20029;-68
2022/04/28 05:04:27;;;;;;;21.45;14.70;;;3.10;89.10;;;;;;5069261;28;20059;-68
2022/04/28 05:06:53;;;;;;;22.52;14.18;;;3.20;88.10;;;;;;5069218;28;20055;-68
2022/04/28 05:09:18;;;;;;;24.50;16.65;;;3.30;88.20;;;;;;5074647;28;20028;-69
2022/04/28 05:11:44;;;;;;;20.15;13.80;;;3.50;88.00;;;;;;5074954;28;20028;-67
2022/04/28 05:14:10;;;;;;;18.55;12.95;;;3.70;88.20;;;;;;5073142;28;20039;-66
2022/04/28 05:16:35;;;;;;;19.90;13.55;;;4.00;88.50;;;;;;5076237;28;20017;-68
2022/04/28 05:19:01;;;;;;;18.23;12.95;;;4.20;90.10;;;;;;5073074;28;20463;-68
2022/04/28 05:21:26;;;;;;;18.63;12.88;;;4.30;90.80;;;;;;5077367;28;20020;-68
2022/04/28 05:23:52;;;;;;;18.55;13.25;;;4.40;91.70;;;;;;5069944;28;20059;-68
2022/04/28 05:26:18;;;;;;;17.05;12.23;;;4.60;92.80;;;;;;5076086;28;20032;-70
2022/04/28 05:28:44;;;;;;;17.45;12.32;;;4.80;93.50;;;;;;5058589;28;20028;-68
2022/04/28 05:31:09;;;;;;;15.48;11.68;;;5.00;94.60;;;;;;5074045;28;20139;-68
2022/04/28 05:33:37;;;;;;;17.33;11.30;;;5.20;94.60;;;;;;5073814;28;20024;-68
2022/04/28 05:36:08;;;;;;;16.92;11.73;;;5.30;95.30;;;;;;5076222;28;20436;-68
2022/04/28 05:38:35;;;;;;;17.30;11.85;;;5.40;96.20;;;;;;5073486;28;20033;-69
2022/04/28 05:41:01;;;;;;;18.17;13.80;;;5.40;97.30;;;;;;5076463;28;20055;-69
2022/04/28 05:46:12;;;;;;;18.08;12.30;;;5.40;97.90;;;;;;5077096;28;20117;-69
2022/04/28 05:48:38;;;;;;;16.40;11.50;;;5.40;97.90;;;;;;5066423;28;20056;-69
2022/04/28 05:51:03;;;;;;;21.00;13.73;;;5.50;97.30;;;;;;5073272;28;20033;-70
2022/04/28 05:53:30;;;;;;;17.55;13.45;;;5.60;96.60;;;;;;5075897;28;20025;-69
2022/04/28 05:55:56;;;;;;;24.10;17.55;;;5.70;97.20;;;;;;5070118;28;20044;-68
2022/04/28 05:58:21;;;;;;;24.02;17.38;;;5.90;98.00;;;;;;5075120;28;20090;-69
2022/04/28 06:00:47;;;;;;;22.83;17.15;;;6.00;98.00;;;;;;5077341;28;20170;-68
2022/04/28 06:03:13;;;;;;;21.70;16.50;;;6.20;98.00;;;;;;5074689;28;20029;-68
2022/04/28 06:05:38;;;;;;;18.23;13.38;;;6.30;98.00;;;;;;5057446;28;20133;-69
2022/04/28 06:08:04;;;;;;;16.88;12.50;;;6.50;98.00;;;;;;5075981;28;20032;-69
2022/04/28 06:10:30;;;;;;;22.15;15.07;;;6.60;98.00;;;;;;5074380;28;20134;-70
2022/04/28 06:12:56;;;;;;;23.55;16.67;;;6.80;98.00;;;;;;5075875;28;20032;-68
2022/04/28 06:15:21;;;;;;;20.50;15.20;;;7.00;98.00;;;;;;5075852;28;20056;-69
2022/04/28 06:17:47;;;;;;;15.43;10.45;;;7.20;98.00;;;;;;5057449;28;20020;-69
2022/04/28 06:20:13;;;;;;;12.43;9.05;;;7.50;98.00;;;;;;5075335;28;20069;-69
2022/04/28 06:22:38;;;;;;;12.38;9.65;;;7.80;98.00;;;;;;5075033;28;20032;-68
2022/04/28 06:25:04;;;;;;;14.38;9.30;;;8.00;98.00;;;;;;5076691;28;20059;-68
2022/04/28 06:27:30;;;;;;;12.23;7.78;;;8.20;97.50;;;;;;5057703;28;20023;-67
2022/04/28 06:29:56;;;;;;;12.35;7.68;;;8.60;94.90;;;;;;5057461;28;20024;-68
2022/04/28 06:32:22;;;;;;;11.30;7.78;;;8.80;94.00;;;;;;5074368;28;20031;-68
2022/04/28 06:34:48;;;;;;;10.13;7.68;;;9.00;93.50;;;;;;5073598;28;20099;-68
2022/04/28 06:37:17;;;;;;;10.60;7.07;;;9.20;92.90;;;;;;5073863;28;20414;-68
2022/04/28 06:39:43;;;;;;;9.00;6.10;;;9.40;90.80;;;;;;5074743;28;20367;-69
2022/04/28 06:42:09;;;;;;;10.35;6.93;;;9.60;89.80;;;;;;5057992;28;20418;-68
2022/04/28 06:44:36;;;;;;;8.88;6.55;;;9.70;87.20;;;;;;5075456;28;20040;-68
2022/04/28 06:47:03;;;;;;;10.30;6.82;;;9.80;88.00;;;;;;5074908;28;20024;-66
2022/04/28 06:49:28;;;;;;;9.07;6.47;;;10.00;87.50;;;;;;5074144;28;20039;-67
2022/04/28 06:51:54;;;;;;;9.07;6.22;;;10.10;85.90;;;;;;5075479;28;20025;-67
2022/04/28 06:54:20;;;;;;;9.70;6.50;;;10.30;84.80;;;;;;5075637;28;20052;-67
2022/04/28 06:56:47;;;;;;;11.43;6.60;;;10.30;85.40;;;;;;5049772;28;20021;-67
2022/04/28 06:59:15;;;;;;;8.80;6.22;;;10.40;84.40;;;;;;5053736;28;20048;-69
2022/04/28 07:01:41;;;;;;;8.18;6.22;;;10.50;83.70;;;;;;5055080;28;20032;-68
2022/04/28 07:04:07;;;;;;;10.45;6.20;;;10.70;83.40;;;;;;5050938;28;20098;-69
2022/04/28 07:06:35;;;;;;;9.63;6.55;;;10.80;83.30;;;;;;5053701;28;20038;-69
2022/04/28 07:09:01;;;;;;;8.52;5.88;;;10.90;82.00;;;;;;5054098;28;20043;-68
2022/04/28 07:11:26;;;;;;;10.98;6.32;;;11.10;83.00;;;;;;5055818;28;20033;-69
2022/04/28 07:13:54;;;;;;;8.70;6.20;;;11.30;82.40;;;;;;5051080;28;20033;-69
2022/04/28 07:16:20;;;;;;;10.18;5.88;;;11.30;81.90;;;;;;5055104;28;20016;-68
2022/04/28 07:18:45;;;;;;;9.23;6.22;;;11.40;81.90;;;;;;5069137;28;20031;-69
2022/04/28 07:21:11;;;;;;;9.55;6.90;;;11.50;80.70;;;;;;5068432;28;20429;-69
2022/04/28 07:23:37;;;;;;;8.30;6.10;;;11.50;80.90;;;;;;5074531;28;20078;-69
2022/04/28 07:26:03;;;;;;;11.55;6.90;;;11.70;80.70;;;;;;5075674;28;20437;-69
2022/04/28 07:28:28;;;;;;;11.75;6.05;;;11.80;80.20;;;;;;5053049;28;20036;-68
2022/04/28 07:30:54;;;;;;;9.00;6.35;;;11.70;81.30;;;;;;5066418;28;20042;-68
2022/04/28 07:33:20;;;;;;;8.43;6.00;;;11.70;80.10;;;;;;5071878;28;20031;-69
2022/04/28 07:35:45;;;;;;;9.63;6.35;;;11.80;81.40;;;;;;5075622;28;20063;-68
2022/04/28 07:38:11;;;;;;;8.93;6.28;;;11.90;80.20;;;;;;5071672;28;20124;-69
2022/04/28 07:40:37;;;;;;;8.98;5.93;;;12.00;79.80;;;;;;5067431;28;20020;-69
2022/04/28 07:43:05;;;;;;;8.20;5.68;;;12.20;79.50;;;;;;5071947;28;20044;-67
2022/04/28 07:45:31;;;;;;;8.60;6.00;;;12.60;76.80;;;;;;5066549;28;20028;-68
2022/04/28 07:47:57;;;;;;;7.55;4.72;;;13.40;75.20;;;;;;5072933;28;20029;-67
2022/04/28 07:50:23;;;;;;;7.88;4.95;;;14.70;74.30;;;;;;5075687;28;20036;-69
2022/04/28 07:52:48;;;;;;;8.18;5.00;;;15.90;71.20;;;;;;5073778;28;20100;-68
2022/04/28 07:55:23;;;;;;;7.78;4.97;;;16.20;67.80;;;;;;5059625;28;20029;-67
2022/04/28 07:57:52;;;;;;;9.68;5.15;;;16.70;67.40;;;;;;5081042;28;20020;-69
2022/04/28 08:00:18;;;;;;;6.60;4.65;;;16.90;65.00;;;;;;5074128;28;20063;-67
2022/04/28 08:02:45;;;;;;;6.47;4.25;;;17.10;65.30;;;;;;5036820;28;20055;-68
2022/04/28 08:05:11;;;;;;;7.50;4.50;;;17.40;63.30;;;;;;5036429;28;20314;-68
2022/04/28 08:07:36;;;;;;;6.93;4.25;;;17.30;63.00;;;;;;5053799;28;20021;-69
2022/04/28 08:10:06;;;;;;;5.80;3.95;;;17.10;61.70;;;;;;5037772;28;20116;-69
2022/04/28 08:12:34;;;;;;;6.85;4.32;;;17.10;62.20;;;;;;5054886;28;20021;-69
2022/04/28 08:15:00;;;;;;;7.47;4.22;;;16.80;62.90;;;;;;5054387;28;20376;-69
2022/04/28 08:17:26;;;;;;;7.85;3.97;;;17.00;63.50;;;;;;5028277;28;20029;-69
2022/04/28 08:19:52;;;;;;;6.90;4.00;;;17.20;63.90;;;;;;5036591;28;20079;-70
2022/04/28 08:22:18;;;;;;;12.70;4.63;;;17.80;62.50;;;;;;5059212;28;20028;-69
2022/04/28 08:24:43;;;;;;;7.75;4.68;;;17.80;62.40;;;;;;5039004;28;20048;-69
2022/04/28 08:27:10;;;;;;;6.85;4.35;;;18.00;62.80;;;;;;5054736;28;20033;-68
2022/04/28 08:29:35;;;;;;;7.22;4.05;;;18.30;60.60;;;;;;5054617;28;20064;-68
2022/04/28 08:32:01;;;;;;;8.13;4.60;;;17.80;59.20;;;;;;5055341;28;20107;-68
2022/04/28 08:34:32;;;;;;;7.18;4.22;;;17.40;60.40;;;;;;5051339;28;20307;-67
2022/04/28 08:36:58;;;;;;;6.65;4.20;;;17.30;60.10;;;;;;5045125;28;20045;-67
2022/04/28 08:39:23;;;;;;;6.72;4.25;;;17.60;60.40;;;;;;5054572;28;20048;-68
2022/04/28 08:41:49;;;;;;;6.75;4.13;;;17.80;60.90;;;;;;5055020;28;20064;-68
2022/04/28 08:44:17;;;;;;;10.38;4.50;;;17.80;58.60;;;;;;5058222;28;20036;-69
2022/04/28 08:46:53;;;;;;;6.97;4.78;;;18.00;58.80;;;;;;5057995;28;20037;-68
2022/04/28 08:49:22;;;;;;;7.65;4.10;;;18.30;57.80;;;;;;5048860;28;20104;-69
2022/04/28 08:51:50;;;;;;;6.68;3.95;;;18.00;59.40;;;;;;5040588;28;20434;-69
2022/04/28 08:54:16;;;;;;;7.07;4.03;;;18.70;58.10;;;;;;5052852;28;20325;-69
2022/04/28 08:56:42;;;;;;;6.82;4.07;;;18.80;56.60;;;;;;5078643;28;20020;-69
2022/04/28 08:59:08;;;;;;;7.03;3.75;;;19.20;57.40;;;;;;5060458;28;20060;-69
2022/04/28 09:01:34;;;;;;;7.43;3.80;;;19.10;57.60;;;;;;5053172;28;20029;-68
2022/04/28 09:04:10;;;;;;;6.35;3.78;;;19.30;56.20;;;;;;5052745;28;20457;-67
2022/04/28 09:06:38;;;;;;;7.22;3.90;;;19.20;55.80;;;;;;5045245;28;20025;-68
2022/04/28 09:09:15;;;;;;;6.35;3.97;;;18.90;56.30;;;;;;5057093;28;20029;-68
2022/04/28 09:11:42;;;;;;;6.32;3.60;;;18.30;54.90;;;;;;5057119;28;20037;-68
2022/04/28 09:14:20;;;;;;;6.32;3.45;;;18.10;54.90;;;;;;5046475;28;20318;-68
2022/04/28 09:16:54;;;;;;;6.20;3.67;;;18.80;55.50;;;;;;5039556;28;20322;-68
2022/04/28 09:19:24;;;;;;;;;;;19.70;56.30;;;;;;5040245;28;20020;-68
2022/04/28 09:21:57;;;;;;;6.15;4.28;;;19.40;54.60;;;;;;5040746;28;19927;-68
2022/04/28 09:24:26;;;;;;;6.65;4.03;;;18.90;54.30;;;;;;5057922;28;20033;-68
2022/04/28 09:26:56;;;;;;;8.10;3.92;;;19.20;57.00;;;;;;5032872;28;20030;-68
2022/04/28 09:29:25;;;;;;;7.10;3.50;;;19.30;55.20;;;;;;5054700;28;20112;-69
2022/04/28 09:31:52;;;;;;;5.68;3.55;;;19.90;54.70;;;;;;5056860;28;20020;-68
2022/04/28 09:34:20;;;;;;;6.53;4.10;;;20.10;54.20;;;;;;5056007;28;20029;-68
2022/04/28 09:36:48;;;;;;;7.35;4.07;;;19.80;53.40;;;;;;5057087;28;20036;-67
2022/04/28 09:44:59;;;;;;;7.07;3.80;;;20.20;53.70;;;;;;5046197;28;20103;-67
2022/04/28 09:47:33;;;;;;;7.50;3.80;;;20.40;54.90;;;;;;5052991;28;20021;-67
2022/04/28 09:50:11;;;;;;;6.40;3.97;;;19.90;54.60;;;;;;5038055;28;20440;-67
2022/04/28 09:52:37;;;;;;;6.20;3.90;;;19.50;52.50;;;;;;5056681;28;20083;-67
2022/04/28 09:55:04;;;;;;;7.32;3.28;;;20.10;54.30;;;;;;5056381;28;20025;-68
2022/04/28 09:57:32;;;;;;;7.25;4.00;;;20.60;51.90;;;;;;5051034;28;20040;-68
2022/04/28 09:59:59;;;;;;;6.55;4.10;;;20.70;54.70;;;;;;5057216;28;20044;-68
2022/04/28 10:02:26;;;;;;;6.25;4.00;;;19.90;54.60;;;;;;5057713;28;20029;-68
2022/04/28 10:04:54;;;;;;;6.35;3.70;;;20.20;54.90;;;;;;5054791;28;20420;-67
2022/04/28 10:07:21;;;;;;;7.38;4.30;;;20.50;54.00;;;;;;5057460;28;20053;-68
2022/04/28 10:09:50;;;;;;;6.32;4.32;;;20.30;53.80;;;;;;5052845;28;20021;-68
2022/04/28 10:12:25;;;;;;;5.65;3.40;;;20.50;52.80;;;;;;5056980;28;20032;-67
2022/04/28 10:14:54;;;;;;;6.07;3.70;;;20.70;55.00;;;;;;5056792;28;20441;-67
2022/04/28 10:17:49;;;;;;;8.35;4.30;;;21.40;53.50;;;;;;5056281;28;20083;-67
2022/04/28 10:20:29;;;;;;;6.13;3.70;;;21.40;51.50;;;;;;5056550;28;20024;-67
2022/04/28 10:23:01;;;;;;;6.00;3.25;;;21.20;51.90;;;;;;5057025;28;20029;-67
2022/04/28 10:34:15;;;;;;;6.93;3.70;;;20.30;52.70;;;;;;5054546;28;20075;-68
2022/04/28 10:36:53;;;;;;;6.57;3.70;;;20.30;53.90;;;;;;5040404;28;20021;-66
2022/04/28 10:39:41;;;;;;;6.03;4.28;;;20.90;52.10;;;;;;5056281;28;20076;-69
2022/04/28 10:42:20;;;;;;;7.20;3.92;;;20.40;52.70;;;;;;5055457;28;20025;-68
2022/04/28 10:44:55;;;;;;;7.68;4.53;;;20.50;52.50;;;;;;5038603;28;20524;-67
2022/04/28 10:47:38;;;;;;;7.10;4.25;;;20.40;51.00;;;;;;5055412;28;20064;-66
2022/04/28 10:50:23;;;;;;;6.00;3.63;;;20.60;54.00;;;;;;5056153;28;20020;-67
2022/04/28 10:53:00;;;;;;;7.75;4.10;;;21.30;53.20;;;;;;5037870;28;20048;-67
2022/04/28 10:55:42;;;;;;;7.05;4.00;;;20.90;51.70;;;;;;5055001;28;20029;-68
2022/04/28 10:58:19;;;;;;;6.22;3.80;;;20.80;54.50;;;;;;5052662;28;20410;-67
2022/04/28 11:01:03;;;;;;;7.43;4.05;;;20.70;55.30;;;;;;5048666;28;20353;-66
2022/04/28 11:03:57;;;;;;;6.03;4.13;;;20.40;51.10;;;;;;5053625;28;20024;-68
2022/04/28 11:06:30;;;;;;;5.75;3.30;;;20.10;54.00;;;;;;5034655;28;20056;-67
2022/04/28 11:08:59;;;;;;;5.47;3.30;;;20.50;54.30;;;;;;5054237;28;20029;-68
2022/04/28 11:11:29;;;;;;;7.10;4.20;;;21.00;52.50;;;;;;5054810;28;20106;-68
2022/04/28 11:14:01;;;;;;;5.90;3.25;;;20.90;51.70;;;;;;5056014;28;20033;-67
2022/04/28 11:16:27;;;;;;;6.68;3.15;;;21.00;52.40;;;;;;5054568;28;20100;-67
2022/04/28 11:19:01;;;;;;;5.15;3.42;;;21.40;50.30;;;;;;5053634;28;20108;-66
2022/04/28 11:21:42;;;;;;;16.55;4.00;;;21.50;53.80;;;;;;5055344;28;20045;-67
2022/04/28 11:24:09;;;;;;;6.85;4.45;;;21.50;50.80;;;;;;5055850;28;20033;-66
2022/04/28 11:26:36;;;;;;;5.70;3.80;;;20.80;51.30;;;;;;5054294;28;20029;-67
2022/04/28 11:29:07;;;;;;;5.97;3.55;;;20.40;53.40;;;;;;5055473;28;20358;-68
2022/04/28 11:31:46;;;;;;;9.05;4.70;;;20.90;55.20;;;;;;5037518;28;20029;-66
2022/04/28 11:34:14;;;;;;;6.55;3.55;;;21.10;54.10;;;;;;5054568;28;20032;-68
2022/04/28 11:36:41;;;;;;;6.55;3.42;;;21.30;54.30;;;;;;5053789;28;20021;-68
2022/04/28 11:39:11;;;;;;;5.70;3.42;;;21.10;51.60;;;;;;5029899;28;20104;-67
2022/04/28 11:41:42;;;;;;;6.13;3.88;;;20.60;51.90;;;;;;5053205;28;20025;-68
2022/04/28 11:44:14;;;;;;;7.05;3.63;;;20.40;50.70;;;;;;5054778;28;20017;-67
2022/04/28 11:46:49;;;;;;;7.07;4.20;;;19.90;52.30;;;;;;5054484;28;20329;-69
2022/04/28 11:49:16;;;;;;;9.95;3.90;;;19.80;51.20;;;;;;5053362;28;20021;-67
2022/04/28 11:51:42;;;;;;;7.10;3.83;;;20.00;53.70;;;;;;5055638;28;20029;-67
2022/04/28 11:54:25;;;;;;;7.07;4.07;;;20.20;54.40;;;;;;5055893;28;20035;-66
2022/04/28 11:57:13;;;;;;;6.85;4.00;;;20.30;54.40;;;;;;5054442;28;20021;-66
2022/04/28 11:59:40;;;;;;;6.40;3.92;;;20.10;55.40;;;;;;5054270;28;20051;-68
2022/04/28 12:02:30;;;;;;;7.28;4.35;;;20.00;54.40;;;;;;5037570;28;20099;-67
2022/04/28 12:05:05;;;;;;;7.20;4.20;;;20.10;56.10;;;;;;5036303;28;20521;-67
2022/04/28 12:07:34;;;;;;;6.07;3.55;;;20.50;54.80;;;;;;5054652;28;20029;-67
2022/04/28 12:15:53;;;;;;;7.35;3.90;;;20.20;55.40;;;;;;5054085;28;20384;-68
2022/04/28 12:21:24;;;;;;;6.97;4.00;;;20.40;53.90;;;;;;5058827;28;20086;-67
2022/04/28 12:23:56;;;;;;;6.85;4.30;;;20.50;55.10;;;;;;5054545;28;20036;-67
2022/04/28 12:26:26;;;;;;;5.70;3.58;;;20.50;55.00;;;;;;5059076;28;20035;-68
2022/04/28 12:28:52;;;;;;;7.60;4.18;;;20.50;55.80;;;;;;5057315;28;20091;-67
2022/04/28 12:31:32;;;;;;;8.02;4.70;;;20.80;54.40;;;;;;5058787;28;20044;-67
2022/04/28 12:33:58;;;;;;;8.35;4.18;;;20.90;51.70;;;;;;5058352;28;20028;-67
2022/04/28 12:36:25;;;;;;;8.27;4.75;;;20.50;52.70;;;;;;5059104;28;20107;-66
2022/04/28 12:38:59;;;;;;;5.93;3.80;;;20.20;51.90;;;;;;5057381;28;20135;-67
2022/04/28 12:41:27;;;;;;;6.87;3.73;;;20.40;54.80;;;;;;5057590;28;20094;-67
2022/04/28 12:43:58;;;;;;;9.40;4.68;;;20.40;51.80;;;;;;5027919;28;20282;-67
2022/04/28 12:46:39;;;;;;;8.02;5.13;;;20.50;53.80;;;;;;5038646;28;20040;-68
2022/04/28 12:49:09;;;;;;;8.23;4.47;;;20.40;54.00;;;;;;5046071;28;20104;-68
2022/04/28 12:51:46;;;;;;;10.27;4.95;;;20.40;54.80;;;;;;5038545;28;21297;-68
2022/04/28 12:54:17;;;;;;;7.60;4.68;;;20.80;56.60;;;;;;5046349;28;20087;-69
2022/04/28 12:56:45;;;;;;;6.88;4.85;;;21.30;55.10;;;;;;5037207;28;20430;-67
2022/04/28 12:59:14;;;;;;;8.10;4.68;;;21.50;53.70;;;;;;5051915;28;20045;-69
2022/04/28 13:01:41;;;;;;;7.80;5.30;;;21.20;52.90;;;;;;5043190;28;20030;-69
2022/04/28 13:04:12;;;;;;;6.32;4.18;;;20.90;54.30;;;;;;5061375;28;20021;-69
2022/04/28 13:06:42;;;;;;;6.57;4.50;;;21.20;54.90;;;;;;5056139;28;20428;-67
2022/04/28 13:09:08;;;;;;;6.40;4.03;;;21.00;51.00;;;;;;5056259;28;20036;-67
2022/04/28 13:11:39;;;;;;;7.22;4.30;;;21.30;54.70;;;;;;5058544;28;20367;-68
2022/04/28 13:14:08;;;;;;;7.50;4.28;;;21.50;53.00;;;;;;5057241;28;20021;-67
2022/04/28 13:16:34;;;;;;;7.85;4.50;;;21.20;53.70;;;;;;5058065;28;20037;-67
2022/04/28 13:19:04;;;;;;;7.55;4.15;;;21.60;50.10;;;;;;5038517;28;20111;-68
2022/04/28 13:21:34;;;;;;;10.48;4.88;;;22.10;53.20;;;;;;5055472;28;20027;-67
2022/04/28 13:24:00;;;;;;;8.35;4.75;;;22.20;51.90;;;;;;5058130;28;20118;-68
2022/04/28 13:26:28;;;;;;;8.35;4.70;;;21.80;52.70;;;;;;5057086;28;20056;-67